หน้าหลัก
METAR-TAF:

METAR-TAF

ท่าอากาศยาน :

Santa Fe Municipal Airport

แซนตาเฟ, นิวเม็กซิโก, สหรัฐอเมริกา

ละติจูด: 35-36-38N, ลองจิจูด: 106-05-42W, ความสูง: 1934 ม.

การสังเกตสภาพอากาศปัจจุบัน

รายงานได้ทำขึ้นเมื่อ 1 ชั่วโมงและ 5 นาทีที่แล้ว ณ เวลา 14:53 UTC
ลม 4 นอตจากเหนือ
อุณหภูมิ 23°C
ความชื้น 41%
ความกดอากาศ 1025 hPa
ทัศนวิสัย: 16.1 กม.
ท้องฟ้าแจ่มใส

METAR: KSAF 121453Z 36004KT 10SM CLR 23/09 A3027 RMK AO2 SLP147 T02280089 51010 $

เวลา: 09:58 (15:58 UTC)

การพยากรณ์

รายงานได้ทำขึ้นเมื่อ 4 ชั่วโมงและ 38 นาทีที่แล้ว ณ เวลา 11:20 UTC
การพยากรณ์มีผลตั้งแต่วันที่ 12 ณ เวลา 12 UTC จนถึงวันที่ 13 ณ เวลา 12 UTC
ลม 6 นอตจากเหนือ
ทัศนวิสัย: 10 กม.
ท้องฟ้าแจ่มใส
จาก 12 ณ เวลา 2000 UTC
ลม 10 นอตจากตะวันตก
ทัศนวิสัย: 10 กม.
มีเมฆกระจายเป็นบางส่วนที่ความสูง 12000 ฟุต
จาก 13 ณ เวลา 0200 UTC
ลม 6 นอตจากทิศทางซึ่งแปรผันได้
ทัศนวิสัย: 10 กม.
มีเมฆกระจายเป็นบางส่วนที่ความสูง 13000 ฟุต
จาก 13 ณ เวลา 0800 UTC
ลม 6 นอตจากเหนือ
ทัศนวิสัย: 10 กม.
ท้องฟ้าแจ่มใส

TAF: KSAF 121120Z 1212/1312 01006KT P6SM SKC FM122000 26010KT P6SM SCT120 FM130200 VRB06KT P6SM SCT130 FM130800 01006KT P6SM SKC

สังเกตการณ์สภาพอากาศและพยากรณ์อากาศของสนามบินมากกว่า 4000 แห่ง (รายงาน METAR และ TAF).

สถานีที่ดูได้จะแสดงไว้ด้วยจุดสีเหลืองและสีแดงบนแผนที่.

เลื่อนเมาส์ไปเหนือจุดเพื่อดูชื่อสถานี.

แล้วคลิกเพื่อดูสังเกตการณ์และการพยากรณ์สภาพอากาศ.

ในการเปลี่ยนแผนที่: คลิกที่ปุ่มสีเขียวที่มีกากบาทสีดำเพื่อซูมเข้า; ที่ปุ่มสีเขียวที่มีขีดเพื่อซูมออก; หรือที่ลูกศรสีเขียวเพื่อไปยังแผนที่ที่อยู่ติดกัน.


METAR-TAF: